Terminal Aerodrome Forecast
Issued by NWS

Home | Current Version | Previous Version | Text Only | Print | Product List | Glossary On
Versions: 1 2 3 4 5 6 7 8 9 10 11 12 13 14 15 16 17 18 19 20 21 22 23 24 25 26 27 28 29 30 31 32 33 34 35
000
FTUS46 KOTX 210639 AAA
TAFSFF
TAF AMD
KSFF 210639Z 2107/2206 VRB03KT P6SM BKN010
     FM211000 05002KT 3SM BR BCFG FEW001 SCT007 BKN200
     FM211800 05003KT 5SM -RA BR BKN015 OVC050
     FM220200 VRB03KT 6SM -RA OVC020=

USA.gov is the U.S. government's official web portal to all federal, state and local government web resources and services.